• Join FlightAware (Why Join?)
  • Login
  • US Flag 
05:37AM EDT


 

Airport Tracker/Info


-or-


 

Live Flight TrackerFlight Track Log ✈ KAL61 ✈ 29-Apr-2013 ✈ RKSI / ICN - KLAX

Flight Track Log - Related Links

Times and Time Zones

All times are in EDT time to prevent confusion due to time zone crossing. See the KAL61 flight status page for this flight to view local times or setup timezone preferences in your user account.

Time Position Orientation Groundspeed Altitude Reporting Facility
EDT Latitude Longitude Course Direction KTS MPH feet Rate Location/Type
08:55AM 37.4473 127.1487 79° East  Level FlightAware Approximate
08:56AM 37.4771 127.3292 78° East  Level FlightAware Approximate
08:57AM 37.5055 127.5102 79° East  Level FlightAware Approximate
08:58AM 37.5238 127.6924 78° East  Level FlightAware Approximate
08:59AM 37.5537 127.8731 79° East  Level FlightAware Approximate
09:00AM 37.5824 128.0542 79° East  Level FlightAware Approximate
09:01AM 37.6115 128.2352 78° East  Level FlightAware Approximate
09:02AM 37.6431 128.4156 76° East  Level FlightAware Approximate
09:03AM 37.6667 128.5978 90° East  Level FlightAware Approximate
09:04AM 37.6833 128.7667 142° Southeast  Level FlightAware Approximate
09:05AM 37.6054 128.9212 119° Southeast  Level FlightAware Approximate
09:06AM 37.5305 129.0798 121° Southeast  Level FlightAware Approximate
09:07AM 37.4551 129.2379 121° Southeast  Level FlightAware Approximate
09:08AM 37.3838 129.3988 118° Southeast  Level FlightAware Approximate
09:09AM 37.3069 129.5555 122° Southeast  Level FlightAware Approximate
09:10AM 37.2297 129.7117 122° Southeast  Level FlightAware Approximate
09:11AM 37.1523 129.8677 122° Southeast  Level FlightAware Approximate
09:12AM 37.0747 130.0233 122° Southeast  Level FlightAware Approximate
09:13AM 36.9969 130.1786 122° Southeast  Level FlightAware Approximate
09:14AM 36.9189 130.3336 122° Southeast  Level FlightAware Approximate
09:15AM 36.8407 130.4883 122° Southeast  Level FlightAware Approximate
09:16AM 36.7622 130.6426 122° Southeast  Level FlightAware Approximate
09:17AM 36.6840 130.7969 122° Southeast  Level FlightAware Approximate
09:18AM 36.6057 130.9510 122° Southeast  Level FlightAware Approximate
09:19AM 36.5271 131.1048 122° Southeast  Level FlightAware Approximate
09:20AM 36.4483 131.2582 123° Southeast  Level FlightAware Approximate
09:21AM 36.3694 131.4114 123° Southeast  Level FlightAware Approximate
09:22AM 36.3612 131.5920 92° East  Level FlightAware Approximate
09:23AM 36.3553 131.7736 92° East  Level FlightAware Approximate
09:24AM 36.3491 131.9552 92° East  Level FlightAware Approximate
09:25AM 36.3427 132.1367 92° East  Level FlightAware Approximate
09:26AM 36.3359 132.3182 93° East  Level FlightAware Approximate
09:27AM 36.3289 132.4997 93° East  Level FlightAware Approximate
09:28AM 36.3216 132.6812 93° East  Level FlightAware Approximate
09:29AM 36.3141 132.8626 93° East  Level FlightAware Approximate
09:30AM 36.3062 133.0439 93° East  Level FlightAware Approximate
09:31AM 36.2981 133.2253 93° East  Level FlightAware Approximate
09:32AM 36.2897 133.4066 93° East  Level FlightAware Approximate
09:33AM 36.2811 133.5878 93° East  Level FlightAware Approximate
09:34AM 36.2721 133.7691 93° East  Level FlightAware Approximate
09:35AM 36.2630 133.9503 94° East  Level FlightAware Approximate
09:36AM 36.2535 134.1314 94° East  Level FlightAware Approximate
09:37AM 36.2437 134.3125 94° East  Level FlightAware Approximate
09:38AM 36.2337 134.4935 94° East  Level FlightAware Approximate
09:39AM 36.2227 134.6745 94° East  Level FlightAware Approximate
09:40AM 36.2114 134.8553 94° East  Level FlightAware Approximate
09:41AM 36.2000 135.0362 90° East  Level FlightAware Approximate
09:42AM 36.1999 135.2175 95° East  Level FlightAware Approximate
09:43AM 36.1879 135.3983 95° East  Level FlightAware Approximate
09:44AM 36.1755 135.5790 95° East  Level FlightAware Approximate
09:45AM 36.1629 135.7596 95° East  Level FlightAware Approximate
09:46AM 36.1500 135.9402 95° East  Level FlightAware Approximate
09:47AM 36.1368 136.1207 95° East  Level FlightAware Approximate
09:48AM 36.1233 136.3011 95° East  Level FlightAware Approximate
09:49AM 36.1096 136.4815 95° East  Level FlightAware Approximate
09:50AM 36.0956 136.6619 95° East  Level FlightAware Approximate
09:51AM 36.0814 136.8421 96° East  Level FlightAware Approximate
09:52AM 36.0669 137.0223 96° East  Level FlightAware Approximate
09:53AM 36.0521 137.2025 96° East  Level FlightAware Approximate
09:54AM 36.0370 137.3825 96° East  Level FlightAware Approximate
09:55AM 36.0217 137.5625 96° East  Level FlightAware Approximate
09:56AM 36.0061 137.7424 96° East  Level FlightAware Approximate
09:57AM 35.9902 137.9223 96° East  Level FlightAware Approximate
09:58AM 35.9741 138.1021 96° East  Level FlightAware Approximate
09:59AM 35.9582 138.2818 96° East  Level FlightAware Approximate
10:00AM 35.9426 138.4616 96° East  Level FlightAware Approximate
10:01AM 35.9268 138.6413 96° East  Level FlightAware Approximate
10:02AM 35.9106 138.8210 96° East  Level FlightAware Approximate
10:03AM 35.8942 139.0005 96° East  Level FlightAware Approximate
10:04AM 35.8775 139.1800 96° East  Level FlightAware Approximate
10:05AM 35.8606 139.3594 97° East  Level FlightAware Approximate
10:06AM 35.8434 139.5387 97° East  Level FlightAware Approximate
10:07AM 35.8259 139.7180 97° East  Level FlightAware Approximate
10:08AM 35.8082 139.8972 97° East  Level FlightAware Approximate
10:09AM 35.7902 140.0762 97° East  Level FlightAware Approximate
10:10AM 35.7719 140.2553 97° East  Level FlightAware Approximate
10:11AM 35.7534 140.4342 97° East  Level FlightAware Approximate
10:12AM 35.7347 140.6131 97° East  Level FlightAware Approximate
10:13AM 35.7172 140.7919 85° East  Level FlightAware Approximate
10:14AM 35.7286 140.9716 85° East  Level FlightAware Approximate
10:15AM 35.7397 141.1514 86° East  Level FlightAware Approximate
10:16AM 35.7505 141.3313 86° East  Level FlightAware Approximate
10:17AM 35.7610 141.5112 86° East  Level FlightAware Approximate
10:18AM 35.7713 141.6911 86° East  Level FlightAware Approximate
10:19AM 35.7813 141.8711 86° East  Level FlightAware Approximate
10:20AM 35.7911 142.0511 86° East  Level FlightAware Approximate
10:21AM 35.8005 142.2312 86° East  Level FlightAware Approximate
10:22AM 35.8098 142.4113 86° East  Level FlightAware Approximate
10:23AM 35.8190 142.5914 86° East  Level FlightAware Approximate
10:24AM 35.8289 142.7715 86° East  Level FlightAware Approximate
10:25AM 35.8385 142.9517 86° East  Level FlightAware Approximate
10:26AM 35.8479 143.1319 86° East  Level FlightAware Approximate
10:27AM 35.8570 143.3121 86° East  Level FlightAware Approximate
10:28AM 35.8659 143.4924 86° East  Level FlightAware Approximate
10:29AM 35.8744 143.6727 87° East  Level FlightAware Approximate
10:30AM 35.8827 143.8530 87° East  Level FlightAware Approximate
10:31AM 35.9116 144.0300 78° East  Level FlightAware Approximate
10:32AM 35.9420 144.2069 78° East  Level FlightAware Approximate
10:33AM 35.9720 144.3838 78° East  Level FlightAware Approximate
10:34AM 36.0019 144.5609 78° East  Level FlightAware Approximate
10:35AM 36.0314 144.7381 78° East  Level FlightAware Approximate
10:36AM 36.0607 144.9155 78° East  Level FlightAware Approximate
10:37AM 36.0898 145.0930 79° East  Level FlightAware Approximate
10:38AM 36.1186 145.2706 79° East  Level FlightAware Approximate
10:39AM 36.1471 145.4484 79° East  Level FlightAware Approximate
10:40AM 36.1889 145.6220 73° East  Level FlightAware Approximate
10:41AM 36.2408 145.7915 68° East  Level FlightAware Approximate
10:42AM 36.2956 145.9598 68° East  Level FlightAware Approximate
10:43AM 36.3502 146.1284 68° East  Level FlightAware Approximate
10:44AM 36.4033 146.2977 74° East  Level FlightAware Approximate
10:45AM 36.4437 146.4725 74° East  Level FlightAware Approximate
10:46AM 36.4838 146.6476 74° East  Level FlightAware Approximate
10:47AM 36.5237 146.8228 74° East  Level FlightAware Approximate
10:48AM 36.5633 146.9982 74° East  Level FlightAware Approximate
10:49AM 36.6027 147.1738 74° East  Level FlightAware Approximate
10:50AM 36.6418 147.3495 74° East  Level FlightAware Approximate
10:51AM 36.6806 147.5254 75° East  Level FlightAware Approximate
10:52AM 36.7192 147.7015 75° East  Level FlightAware Approximate
10:53AM 36.7575 147.8778 75° East  Level FlightAware Approximate
10:54AM 36.7956 148.0542 75° East  Level FlightAware Approximate
10:55AM 36.8333 148.2309 75° East  Level FlightAware Approximate
10:56AM 36.8709 148.4077 75° East  Level FlightAware Approximate
10:57AM 36.8933 148.5880 84° East  Level FlightAware Approximate
10:58AM 36.9080 148.7701 84° East  Level FlightAware Approximate
10:59AM 36.9225 148.9523 84° East  Level FlightAware Approximate
11:00AM 36.9366 149.1345 84° East  Level FlightAware Approximate
11:01AM 36.9505 149.3168 85° East  Level FlightAware Approximate
11:02AM 36.9641 149.4992 85° East  Level FlightAware Approximate
11:03AM 36.9774 149.6816 85° East  Level FlightAware Approximate
11:04AM 36.9905 149.8641 85° East  Level FlightAware Approximate
11:05AM 37.0020 150.0468 87° East  Level FlightAware Approximate
11:06AM 37.0094 150.2299 87° East  Level FlightAware Approximate
11:07AM 37.0166 150.4129 87° East  Level FlightAware Approximate
11:08AM 37.0236 150.5961 87° East  Level FlightAware Approximate
11:09AM 37.0302 150.7792 87° East  Level FlightAware Approximate
11:10AM 37.0366 150.9624 87° East  Level FlightAware Approximate
11:11AM 37.0426 151.1456 88° East  Level FlightAware Approximate
11:12AM 37.0484 151.3288 88° East  Level FlightAware Approximate
11:13AM 37.0539 151.5121 88° East  Level FlightAware Approximate
11:14AM 37.0592 151.6954 88° East  Level FlightAware Approximate
11:15AM 37.0641 151.8787 88° East  Level FlightAware Approximate
11:16AM 37.0688 152.0621 88° East  Level FlightAware Approximate
11:17AM 37.0732 152.2454 88° East  Level FlightAware Approximate
11:18AM 37.0773 152.4288 88° East  Level FlightAware Approximate
11:19AM 37.0811 152.6122 88° East  Level FlightAware Approximate
11:20AM 37.0846 152.7956 89° East  Level FlightAware Approximate
11:21AM 37.0879 152.9790 89° East  Level FlightAware Approximate
11:22AM 37.0909 153.1625 89° East  Level FlightAware Approximate
11:23AM 37.0936 153.3460 89° East  Level FlightAware Approximate
11:24AM 37.0960 153.5294 89° East  Level FlightAware Approximate
11:25AM 37.0981 153.7129 89° East  Level FlightAware Approximate
11:26AM 37.0999 153.8964 89° East  Level FlightAware Approximate
11:27AM 37.1015 154.0799 89° East  Level FlightAware Approximate
11:28AM 37.1028 154.2634 89° East  Level FlightAware Approximate
11:29AM 37.1037 154.4470 90° East  Level FlightAware Approximate
11:30AM 37.1045 154.6305 90° East  Level FlightAware Approximate
11:31AM 37.1049 154.8140 90° East  Level FlightAware Approximate
11:32AM 37.1050 154.9975 90° East  Level FlightAware Approximate
11:33AM 37.1049 155.1811 90° East  Level FlightAware Approximate
11:34AM 37.1045 155.3646 90° East  Level FlightAware Approximate
11:35AM 37.1038 155.5481 90° East  Level FlightAware Approximate
11:36AM 37.1028 155.7316 90° East  Level FlightAware Approximate
11:37AM 37.1015 155.9151 90° East  Level FlightAware Approximate
11:38AM 37.1000 156.0986 91° East  Level FlightAware Approximate
11:39AM 37.0981 156.2821 91° East  Level FlightAware Approximate
11:40AM 37.0960 156.4656 91° East  Level FlightAware Approximate
11:41AM 37.0936 156.6491 91° East  Level FlightAware Approximate
11:42AM 37.0909 156.8326 91° East  Level FlightAware Approximate
11:43AM 37.0880 157.0160 91° East  Level FlightAware Approximate
11:44AM 37.0847 157.1994 91° East  Level FlightAware Approximate
11:45AM 37.0812 157.3829 91° East  Level FlightAware Approximate
11:46AM 37.0774 157.5663 91° East  Level FlightAware Approximate
11:47AM 37.0733 157.7496 92° East  Level FlightAware Approximate
11:48AM 37.0689 157.9330 92° East  Level FlightAware Approximate
11:49AM 37.0643 158.1163 92° East  Level FlightAware Approximate
11:50AM 37.0593 158.2997 92° East  Level FlightAware Approximate
11:51AM 37.0541 158.4830 92° East  Level FlightAware Approximate
11:52AM 37.0486 158.6662 92° East  Level FlightAware Approximate
11:53AM 37.0428 158.8495 92° East  Level FlightAware Approximate
11:54AM 37.0367 159.0327 92° East  Level FlightAware Approximate
11:55AM 37.0304 159.2159 92° East  Level FlightAware Approximate
11:56AM 37.0238 159.3990 93° East  Level FlightAware Approximate
11:57AM 37.0168 159.5821 93° East  Level FlightAware Approximate
11:58AM 37.0096 159.7652 93° East  Level FlightAware Approximate
11:59AM 37.0022 159.9483 93° East  Level FlightAware Approximate
12:00PM 37.0048 160.1313 87° East  Level FlightAware Approximate
12:01PM 37.0113 160.3144 87° East  Level FlightAware Approximate
12:02PM 37.0175 160.4975 88° East  Level FlightAware Approximate
12:03PM 37.0234 160.6807 88° East  Level FlightAware Approximate
12:04PM 37.0291 160.8639 88° East  Level FlightAware Approximate
12:05PM 37.0344 161.0471 88° East  Level FlightAware Approximate
12:06PM 37.0395 161.2304 88° East  Level FlightAware Approximate
12:07PM 37.0443 161.4137 88° East  Level FlightAware Approximate
12:08PM 37.0488 161.5970 88° East  Level FlightAware Approximate
12:09PM 37.0531 161.7803 88° East  Level FlightAware Approximate
12:10PM 37.0570 161.9636 88° East  Level FlightAware Approximate
12:11PM 37.0607 162.1470 89° East  Level FlightAware Approximate
12:12PM 37.0641 162.3304 89° East  Level FlightAware Approximate
12:13PM 37.0674 162.5137 88° East  Level FlightAware Approximate
12:14PM 37.0716 162.6971 88° East  Level FlightAware Approximate
12:15PM 37.0755 162.8805 88° East  Level FlightAware Approximate
12:16PM 37.0791 163.0639 89° East  Level FlightAware Approximate
12:16PM 37.1000 165.0000 90° East 594 684 34,000  Level Oakland Oceanic (ODAPS)
12:16PM 37.1000 165.1333 90° East 594 684 34,000  Level Oakland Oceanic (ODAPS)
12:17PM 37.0824 163.2473 89° East  Level FlightAware Approximate
12:18PM 37.0855 163.4307 89° East  Level FlightAware Approximate
12:19PM 37.0882 163.6142 89° East  Level FlightAware Approximate
12:20PM 37.0907 163.7976 89° East  Level FlightAware Approximate
12:21PM 37.0929 163.9811 89° East  Level FlightAware Approximate
12:22PM 37.0931 166.4039 91° East 594 684 34,000  Level FlightAware Transoceanic
12:23PM 37.0906 166.6157 91° East 594 684 34,000  Level FlightAware Transoceanic
12:24PM 37.0878 166.8274 91° East 594 684 34,000  Level FlightAware Transoceanic
12:25PM 37.0846 167.0391 91° East 594 684 34,000  Level FlightAware Transoceanic
12:26PM 37.0810 167.2508 91° East 594 684 34,000  Level FlightAware Transoceanic
12:26PM 37.0833 167.1833 91° East 583 671 34,000  Level Oakland Oceanic (ODAPS)
12:27PM 37.0770 167.4624 91° East 594 684 34,000  Level FlightAware Transoceanic
12:28PM 37.0726 167.6741 92° East 594 684 34,000  Level FlightAware Transoceanic
12:29PM 37.0679 167.8857 92° East 594 684 34,000  Level FlightAware Transoceanic
12:30PM 37.0628 168.0973 92° East 594 684 34,000  Level FlightAware Transoceanic
12:31PM 37.0573 168.3089 92° East 594 684 34,000  Level FlightAware Transoceanic
12:32PM 37.0558 168.3912 92° East 583 671 34,000  Level FlightAware Transoceanic
12:33PM 37.0500 168.5924 92° East 583 671 34,000  Level FlightAware Transoceanic
12:34PM 37.0439 168.7936 92° East 583 671 34,000  Level FlightAware Transoceanic
12:35PM 37.0374 168.9948 92° East 583 671 34,000  Level FlightAware Transoceanic
12:36PM 37.0306 169.1959 92° East 583 671 34,000  Level FlightAware Transoceanic
12:37PM 37.0235 169.3970 93° East 583 671 34,000  Level FlightAware Transoceanic
12:38PM 37.0160 169.5980 93° East 583 671 34,000  Level FlightAware Transoceanic
12:39PM 37.0082 169.7990 93° East 583 671 34,000  Level FlightAware Transoceanic
12:40PM 37.0000 170.0000 73° East 583 671 34,000  Level FlightAware Transoceanic
12:40PM 37.0000 170.0000 73° East 719 827 34,000  Level Oakland Oceanic (ODAPS)
12:40PM 37.0000 170.0000 73° East 565 650 34,000  Level Oakland Oceanic (ODAPS)
12:41PM 37.0454 170.1834 73° East 583 671 34,000  Level FlightAware Transoceanic
12:42PM 37.0906 170.3670 73° East 583 671 34,000  Level FlightAware Transoceanic
12:43PM 37.1354 170.5508 73° East 583 671 34,000  Level FlightAware Transoceanic
12:44PM 37.1800 170.7349 73° East 583 671 34,000  Level FlightAware Transoceanic
12:45PM 37.2243 170.9192 73° East 583 671 34,000  Level FlightAware Transoceanic
12:46PM 37.2683 171.1036 73° East 719 827 34,000  Level FlightAware Transoceanic
12:47PM 37.3178 171.3132 74° East 565 650 34,000  Level FlightAware Transoceanic
12:48PM 37.3621 171.5017 74° East 565 650 34,000  Level FlightAware Transoceanic
12:49PM 37.4060 171.6904 74° East 565 650 34,000  Level FlightAware Transoceanic
12:50PM 37.4496 171.8794 74° East 565 650 34,000  Level FlightAware Transoceanic
12:51PM 37.4929 172.0685 74° East 565 650 34,000  Level FlightAware Transoceanic
12:52PM 37.5359 172.2579 74° East 565 650 34,000  Level FlightAware Transoceanic
12:53PM 37.5787 172.4475 74° East 565 650 34,000  Level FlightAware Transoceanic
12:54PM 37.6211 172.6373 74° East 565 650 34,000  Level FlightAware Transoceanic
12:54PM 37.6167 172.6000 74° East 548 631 34,000  Level Oakland Oceanic (ODAPS)
12:55PM 37.6632 172.8273 74° East 565 650 34,000  Level FlightAware Transoceanic
12:56PM 37.7050 173.0176 75° East 565 650 34,000  Level FlightAware Transoceanic
12:57PM 37.7465 173.2081 75° East 565 650 34,000  Level FlightAware Transoceanic
12:58PM 37.7877 173.3987 75° East 565 650 34,000  Level FlightAware Transoceanic
12:59PM 37.8285 173.5896 75° East 565 650 34,000  Level FlightAware Transoceanic
01:00PM 37.8595 173.7195 75° East 548 631 34,000  Level FlightAware Transoceanic
01:01PM 37.8989 173.9069 75° East 548 631 34,000  Level FlightAware Transoceanic
01:02PM 37.9380 174.0944 75° East 548 631 34,000  Level FlightAware Transoceanic
01:03PM 37.9769 174.2821 75° East 548 631 34,000  Level FlightAware Transoceanic
01:04PM 38.0154 174.4700 75° East 548 631 34,000  Level FlightAware Transoceanic
01:05PM 38.0536 174.6581 76° East 548 631 34,000  Level FlightAware Transoceanic
01:06PM 38.0916 174.8463 76° East 548 631 34,000  Level FlightAware Transoceanic
01:07PM 38.1292 175.0348 76° East 548 631 34,000  Level FlightAware Transoceanic
01:08PM 38.1666 175.2235 76° East 548 631 34,000  Level FlightAware Transoceanic
01:08PM 38.1500 175.1333 76° East 526 605 34,000  Level Oakland Oceanic (ODAPS)
01:09PM 38.2036 175.4124 76° East 548 631 34,000  Level FlightAware Transoceanic
01:10PM 38.2403 175.6015 76° East 548 631 34,000  Level FlightAware Transoceanic
01:11PM 38.2768 175.7907 76° East 548 631 34,000  Level FlightAware Transoceanic
01:12PM 38.3129 175.9801 76° East 548 631 34,000  Level FlightAware Transoceanic
01:13PM 38.3487 176.1698 77° East 548 631 34,000  Level FlightAware Transoceanic
01:14PM 38.3562 176.2047 77° East 526 605 34,000  Level FlightAware Transoceanic
01:15PM 38.3896 176.3838 77° East 526 605 34,000  Level FlightAware Transoceanic
01:16PM 38.4228 176.5632 77° East 526 605 34,000  Level FlightAware Transoceanic
01:17PM 38.4557 176.7426 77° East 526 605 34,000  Level FlightAware Transoceanic
01:18PM 38.4883 176.9223 77° East 526 605 34,000  Level FlightAware Transoceanic
01:19PM 38.5206 177.1021 77° East 526 605 34,000  Level FlightAware Transoceanic
01:20PM 38.5526 177.2820 77° East 526 605 34,000  Level FlightAware Transoceanic
01:21PM 38.5844 177.4621 77° East 526 605 34,000  Level FlightAware Transoceanic
01:21PM 38.6167 177.6333 78° East 526 605 34,000  Level Oakland Oceanic (ODAPS)
01:22PM 38.6159 177.6424 77° East 526 605 34,000  Level FlightAware Transoceanic
01:23PM 38.6471 177.8229 78° East 526 605 34,000  Level FlightAware Transoceanic
01:24PM 38.6781 178.0034 78° East 526 605 34,000  Level FlightAware Transoceanic
01:25PM 38.7087 178.1842 78° East 526 605 34,000  Level FlightAware Transoceanic
01:26PM 38.7391 178.3651 78° East 526 605 34,000  Level FlightAware Transoceanic
01:27PM 38.7692 178.5462 78° East 526 605 34,000  Level FlightAware Transoceanic
01:28PM 38.7995 178.7225 78° East 526 605 34,000  Level FlightAware Transoceanic
01:29PM 38.8290 178.9045 78° East 526 605 34,000  Level FlightAware Transoceanic
01:30PM 38.8582 179.0867 78° East 526 605 34,000  Level FlightAware Transoceanic
01:31PM 38.8871 179.2691 79° East 526 605 34,000  Level FlightAware Transoceanic
01:32PM 38.9158 179.4516 79° East 526 605 34,000  Level FlightAware Transoceanic
01:33PM 38.9441 179.6343 79° East 526 605 34,000  Level FlightAware Transoceanic
01:34PM 38.9722 179.8171 79° East 526 605 34,000  Level FlightAware Transoceanic
01:34PM 39.0000 180.0000 79° East 519 597 34,000  Level Oakland Oceanic (ODAPS)
01:35PM 39.0000 -180.0000 79° East 526 605 34,000  Level FlightAware Transoceanic
01:35PM 39.0167 -179.8500 80° East 512 589 34,000  Level Oakland Oceanic (ODAPS)
01:36PM 39.0257 -179.8211 80° East 526 605 34,000  Level FlightAware Transoceanic
01:37PM 39.0512 -179.6420 80° East 526 605 34,000  Level FlightAware Transoceanic
01:38PM 39.0764 -179.4628 80° East 526 605 34,000  Level FlightAware Transoceanic
01:39PM 39.1014 -179.2835 80° East 526 605 34,000  Level FlightAware Transoceanic
01:40PM 39.1260 -179.1041 80° East 526 605 34,000  Level FlightAware Transoceanic
01:41PM 39.1531 -178.9046 80° East 519 597 34,000  Level FlightAware Transoceanic
01:42PM 39.1667 -178.7707 80° East 512 589 34,000  Level FlightAware Transoceanic
01:43PM 39.1907 -178.5904 80° East 512 589 34,000  Level FlightAware Transoceanic
01:44PM 39.2145 -178.4100 80° East 512 589 34,000  Level FlightAware Transoceanic
01:45PM 39.2379 -178.2294 81° East 512 589 34,000  Level FlightAware Transoceanic
01:46PM 39.2611 -178.0487 81° East 512 589 34,000  Level FlightAware Transoceanic
01:47PM 39.2840 -177.8679 81° East 512 589 34,000  Level FlightAware Transoceanic
01:48PM 39.3067 -177.6870 81° East 512 589 34,000  Level FlightAware Transoceanic
01:49PM 39.3290 -177.5060 81° East 512 589 34,000  Level FlightAware Transoceanic
01:49PM 39.3500 -177.3167 81° East 516 594 34,000  Level Oakland Oceanic (ODAPS)
01:50PM 39.3511 -177.3248 81° East 512 589 34,000  Level FlightAware Transoceanic
01:51PM 39.3729 -177.1435 81° East 512 589 34,000  Level FlightAware Transoceanic
01:52PM 39.3944 -176.9621 81° East 512 589 34,000  Level FlightAware Transoceanic
01:53PM 39.4156 -176.7807 81° East 512 589 34,000  Level FlightAware Transoceanic
01:54PM 39.4366 -176.5991 82° East 512 589 34,000  Level FlightAware Transoceanic
01:55PM 39.4589 -176.3870 82° East 516 594 34,000  Level FlightAware Transoceanic
01:56PM 39.4798 -176.2007 82° East 516 594 34,000  Level FlightAware Transoceanic
01:57PM 39.5003 -176.0143 82° East 516 594 34,000  Level FlightAware Transoceanic
01:58PM 39.5206 -175.8278 82° East 516 594 34,000  Level FlightAware Transoceanic
01:59PM 39.5406 -175.6412 82° East 516 594 34,000  Level FlightAware Transoceanic
02:00PM 39.5603 -175.4545 82° East 516 594 34,000  Level FlightAware Transoceanic
02:01PM 39.5797 -175.2676 82° East 516 594 34,000  Level FlightAware Transoceanic
02:02PM 39.5988 -175.0807 83° East 516 594 34,000  Level FlightAware Transoceanic
02:03PM 39.6176 -174.8937 83° East 516 594 34,000  Level FlightAware Transoceanic
02:03PM 39.6333 -174.7500 83° East 517 595 34,000  Level Oakland Oceanic (ODAPS)
02:04PM 39.6361 -174.7065 83° East 516 594 34,000  Level FlightAware Transoceanic
02:05PM 39.6543 -174.5193 83° East 516 594 34,000  Level FlightAware Transoceanic
02:06PM 39.6722 -174.3320 83° East 516 594 34,000  Level FlightAware Transoceanic
02:07PM 39.6898 -174.1445 83° East 516 594 34,000  Level FlightAware Transoceanic
02:08PM 39.7071 -173.9570 83° East 516 594 34,000  Level FlightAware Transoceanic
02:09PM 39.7241 -173.7694 83° East 516 594 34,000  Level FlightAware Transoceanic
02:10PM 39.7511 -173.4763 84° East 517 595 34,000  Level FlightAware Transoceanic
02:11PM 39.7668 -173.2940 84° East 517 595 34,000  Level FlightAware Transoceanic
02:12PM 39.7822 -173.1117 84° East 517 595 34,000  Level FlightAware Transoceanic
02:13PM 39.7973 -172.9292 84° East 517 595 34,000  Level FlightAware Transoceanic
02:14PM 39.8121 -172.7466 84° East 517 595 34,000  Level FlightAware Transoceanic
02:15PM 39.8266 -172.5640 84° East 517 595 34,000  Level FlightAware Transoceanic
02:16PM 39.8409 -172.3813 84° East 517 595 34,000  Level FlightAware Transoceanic
02:17PM 39.8549 -172.1986 84° East 517 595 34,000  Level FlightAware Transoceanic
02:17PM 39.8500 -172.2333 84° East 498 573 34,000  Level Oakland Oceanic (ODAPS)
02:18PM 39.8685 -172.0157 84° East 517 595 34,000  Level FlightAware Transoceanic
02:19PM 39.8819 -171.8328 85° East 517 595 34,000  Level FlightAware Transoceanic
02:20PM 39.8950 -171.6498 85° East 517 595 34,000  Level FlightAware Transoceanic
02:21PM 39.9078 -171.4668 85° East 517 595 34,000  Level FlightAware Transoceanic
02:22PM 39.9204 -171.2836 85° East 517 595 34,000  Level FlightAware Transoceanic
02:23PM 39.9245 -171.2038 85° East 498 573 34,000  Level FlightAware Transoceanic
02:24PM 39.9361 -171.0320 85° East 498 573 34,000  Level FlightAware Transoceanic
02:25PM 39.9474 -170.8601 85° East 498 573 34,000  Level FlightAware Transoceanic
02:26PM 39.9584 -170.6882 85° East 498 573 34,000  Level FlightAware Transoceanic
02:27PM 39.9692 -170.5162 85° East 498 573 34,000  Level FlightAware Transoceanic
02:28PM 39.9797 -170.3442 85° East 498 573 34,000  Level FlightAware Transoceanic
02:29PM 39.9900 -170.1721 86° East 498 573 34,000  Level FlightAware Transoceanic
02:29PM 40.0000 -170.0000 65° Northeast 495 570 34,000  Level Oakland Oceanic (ODAPS)
02:30PM 40.0000 -170.0000 65° Northeast 498 573 34,000  Level FlightAware Transoceanic
02:31PM 40.0588 -169.8356 65° Northeast 498 573 34,000  Level FlightAware Transoceanic
02:31PM 40.0833 -169.7667 65° Northeast 499 574 34,000  Level Oakland Oceanic (ODAPS)
02:32PM 40.1174 -169.6708 65° Northeast 498 573 34,000  Level FlightAware Transoceanic
02:33PM 40.1758 -169.5058 65° Northeast 498 573 34,000  Level FlightAware Transoceanic
02:34PM 40.2339 -169.3405 65° Northeast 498 573 34,000  Level FlightAware Transoceanic
02:35PM 40.2918 -169.1749 65° Northeast 498 573 34,000  Level FlightAware Transoceanic
02:36PM 40.3495 -169.0090 66° East 495 570 34,000  Level FlightAware Transoceanic
02:37PM 40.4283 -168.7806 66° East 499 574 34,000  Level FlightAware Transoceanic
02:38PM 40.4850 -168.6153 66° East 499 574 34,000  Level FlightAware Transoceanic
02:39PM 40.5414 -168.4497 66° East 499 574 34,000  Level FlightAware Transoceanic
02:40PM 40.5976 -168.2838 66° East 499 574 34,000  Level FlightAware Transoceanic
02:41PM 40.6536 -168.1176 66° East 499 574 34,000  Level FlightAware Transoceanic
02:42PM 40.7093 -167.9512 66° East 499 574 34,000  Level FlightAware Transoceanic
02:43PM 40.7648 -167.7845 66° East 499 574 34,000  Level FlightAware Transoceanic
02:44PM 40.8201 -167.6175 66° East 499 574 34,000  Level FlightAware Transoceanic
02:45PM 40.8751 -167.4502 67° East 499 574 34,000  Level FlightAware Transoceanic
02:45PM 40.8500 -167.5000 66° East 500 575 34,000  Level Oakland Oceanic (ODAPS)
02:46PM 40.9298 -167.2827 67° East 499 574 34,000  Level FlightAware Transoceanic
02:47PM 40.9844 -167.1149 67° East 499 574 34,000  Level FlightAware Transoceanic
02:48PM 41.0387 -166.9467 67° East 499 574 34,000  Level FlightAware Transoceanic
02:49PM 41.0927 -166.7784 67° East 499 574 34,000  Level FlightAware Transoceanic
02:50PM 41.1465 -166.6097 67° East 499 574 34,000  Level FlightAware Transoceanic
02:51PM 41.1788 -166.4841 67° East 500 575 34,000  Level FlightAware Transoceanic
02:52PM 41.2327 -166.3139 67° East 500 575 34,000  Level FlightAware Transoceanic
02:53PM 41.2864 -166.1433 67° East 500 575 34,000  Level FlightAware Transoceanic
02:54PM 41.3398 -165.9724 67° East 500 575 34,000  Level FlightAware Transoceanic
02:55PM 41.3930 -165.8013 68° East 500 575 34,000  Level FlightAware Transoceanic
02:56PM 41.4459 -165.6299 68° East 500 575 34,000  Level FlightAware Transoceanic
02:57PM 41.4986 -165.4582 68° East 500 575 34,000  Level FlightAware Transoceanic
02:58PM 41.5510 -165.2862 68° East 500 575 34,000  Level FlightAware Transoceanic
02:59PM 41.6032 -165.1140 68° East 500 575 34,000  Level FlightAware Transoceanic
02:59PM 41.6000 -165.1333 68° East 508 585 34,000  Level Oakland Oceanic (ODAPS)
03:00PM 41.6551 -164.9415 68° East 500 575 34,000  Level FlightAware Transoceanic
03:01PM 41.7067 -164.7686 68° East 500 575 34,000  Level FlightAware Transoceanic
03:02PM 41.7581 -164.5956 68° East 500 575 34,000  Level FlightAware Transoceanic
03:03PM 41.8092 -164.4222 68° East 500 575 34,000  Level FlightAware Transoceanic
03:04PM 41.8601 -164.2486 69° East 500 575 34,000  Level FlightAware Transoceanic
03:05PM 41.9083 -164.0901 69° East 508 585 34,000  Level FlightAware Transoceanic
03:06PM 41.9587 -163.9153 69° East 508 585 34,000  Level FlightAware Transoceanic
03:07PM 42.0089 -163.7402 69° East 508 585 34,000  Level FlightAware Transoceanic
03:08PM 42.0588 -163.5648 69° East 508 585 34,000  Level FlightAware Transoceanic
03:09PM 42.1085 -163.3891 69° East 508 585 34,000  Level FlightAware Transoceanic
03:10PM 42.1579 -163.2132 69° East 508 585 34,000  Level FlightAware Transoceanic
03:11PM 42.2070 -163.0370 69° East 508 585 34,000  Level FlightAware Transoceanic
03:12PM 42.2559 -162.8605 70° East 508 585 34,000 480 Level FlightAware Transoceanic
03:12PM 42.3167 -162.6500 70° East 511 588 35,000  Climbing Oakland Oceanic (ODAPS)
03:13PM 42.3044 -162.6837 70° East 508 585 34,000 -960 Descending FlightAware Transoceanic
03:14PM 42.3527 -162.5067 70° East 508 585 34,000  Level FlightAware Transoceanic
03:15PM 42.4008 -162.3294 70° East 508 585 34,000  Level FlightAware Transoceanic
03:16PM 42.4485 -162.1518 70° East 508 585 34,000  Level FlightAware Transoceanic
03:17PM 42.4960 -161.9739 70° East 508 585 34,000  Level FlightAware Transoceanic
03:18PM 42.5432 -161.7958 70° East 508 585 34,000 480 Level FlightAware Transoceanic
03:19PM 42.6170 -161.5214 71° East 511 588 35,000 480 Climbing FlightAware Transoceanic
03:20PM 42.6660 -161.3323 71° East 511 588 35,000  Level FlightAware Transoceanic
03:21PM 42.7146 -161.1428 71° East 511 588 35,000  Level FlightAware Transoceanic
03:22PM 42.7630 -160.9531 71° East 511 588 35,000  Level FlightAware Transoceanic
03:23PM 42.8110 -160.7631 71° East 511 588 35,000  Level FlightAware Transoceanic
03:24PM 42.8587 -160.5727 71° East 511 588 35,000  Level FlightAware Transoceanic
03:25PM 42.9061 -160.3821 71° East 511 588 35,000  Level FlightAware Transoceanic
03:26PM 42.9532 -160.1912 71° East 511 588 35,000  Level FlightAware Transoceanic
03:26PM 42.9500 -160.1833 69° East 496 571 35,000  Level Oakland Oceanic (ODAPS)
03:27PM 43.0000 -160.0000 71° East 511 588 35,000  Level FlightAware Transoceanic
03:27PM 43.0000 -160.0000 71° East 503 579 35,000  Level Oakland Oceanic (ODAPS)
03:28PM 43.0456 -159.8179 71° East 511 588 35,000  Level FlightAware Transoceanic
03:29PM 43.0910 -159.6354 71° East 511 588 35,000  Level FlightAware Transoceanic
03:30PM 43.1360 -159.4527 71° East 511 588 35,000  Level FlightAware Transoceanic
03:31PM 43.1808 -159.2698 72° East 511 588 35,000  Level FlightAware Transoceanic
03:32PM 43.2253 -159.0866 72° East 511 588 35,000  Level FlightAware Transoceanic
03:33PM 43.2295 -159.0689 72° East 496 571 35,000  Level FlightAware Transoceanic
03:34PM 43.2694 -158.9031 72° East 503 579 35,000  Level FlightAware Transoceanic
03:35PM 43.3133 -158.7193 72° East 503 579 35,000  Level FlightAware Transoceanic
03:36PM 43.3569 -158.5353 72° East 503 579 35,000  Level FlightAware Transoceanic
03:37PM 43.4002 -158.3510 72° East 503 579 35,000  Level FlightAware Transoceanic
03:38PM 43.4432 -158.1665 72° East 503 579 35,000  Level FlightAware Transoceanic
03:39PM 43.4859 -157.9816 72° East 503 579 35,000  Level FlightAware Transoceanic
03:40PM 43.5283 -157.7966 73° East 503 579 35,000  Level FlightAware Transoceanic
03:40PM 43.5500 -157.7000 73° East 500 575 35,000  Level Oakland Oceanic (ODAPS)
03:41PM 43.5704 -157.6113 73° East 503 579 35,000  Level FlightAware Transoceanic
03:42PM 43.6122 -157.4257 73° East 503 579 35,000  Level FlightAware Transoceanic
03:43PM 43.6537 -157.2398 73° East 503 579 35,000  Level FlightAware Transoceanic
03:44PM 43.6949 -157.0537 73° East 503 579 35,000  Level FlightAware Transoceanic
03:45PM 43.7139 -156.9661 73° East 500 575 35,000  Level FlightAware Transoceanic
03:46PM 43.7542 -156.7820 73° East 500 575 35,000  Level FlightAware Transoceanic
03:47PM 43.7941 -156.5976 73° East 500 575 35,000  Level FlightAware Transoceanic
03:48PM 43.8338 -156.4130 73° East 500 575 35,000  Level FlightAware Transoceanic
03:49PM 43.8731 -156.2282 74° East 500 575 35,000  Level FlightAware Transoceanic
03:50PM 43.9122 -156.0431 74° East 500 575 35,000  Level FlightAware Transoceanic
03:51PM 43.9510 -155.8578 74° East 500 575 35,000  Level FlightAware Transoceanic
03:52PM 43.9894 -155.6722 74° East 500 575 35,000  Level FlightAware Transoceanic
03:53PM 44.0276 -155.4864 74° East 500 575 35,000  Level FlightAware Transoceanic
03:54PM 44.0654 -155.3004 74° East 500 575 35,000  Level FlightAware Transoceanic
03:54PM 44.1000 -155.1333 74° East 509 586 35,000  Level Oakland Oceanic (ODAPS)
03:55PM 44.1030 -155.1141 74° East 500 575 35,000  Level FlightAware Transoceanic
03:56PM 44.1403 -154.9276 75° East 500 575 35,000  Level FlightAware Transoceanic
03:57PM 44.1772 -154.7408 75° East 500 575 35,000  Level FlightAware Transoceanic
03:58PM 44.2138 -154.5538 75° East 500 575 35,000  Level FlightAware Transoceanic
03:59PM 44.2502 -154.3666 75° East 500 575 35,000  Level FlightAware Transoceanic
04:00PM 44.3198 -154.0066 75° East 509 586 35,000  Level FlightAware Transoceanic
04:01PM 44.3553 -153.8180 75° East 509 586 35,000  Level FlightAware Transoceanic
04:02PM 44.3905 -153.6291 75° East 509 586 35,000  Level FlightAware Transoceanic
04:03PM 44.4255 -153.4401 76° East 509 586 35,000  Level FlightAware Transoceanic
04:04PM 44.4601 -153.2508 76° East 509 586 35,000  Level FlightAware Transoceanic
04:05PM 44.4944 -153.0613 76° East 509 586 35,000  Level FlightAware Transoceanic
04:06PM 44.5284 -152.8715 76° East 509 586 35,000  Level FlightAware Transoceanic
04:07PM 44.5620 -152.6816 76° East 509 586 35,000  Level FlightAware Transoceanic
04:08PM 44.5954 -152.4914 76° East 509 586 35,000  Level FlightAware Transoceanic
04:08PM 44.6000 -152.4667 76° East 522 601 35,000  Level Oakland Oceanic (ODAPS)
04:09PM 44.6284 -152.3010 76° East 509 586 35,000  Level FlightAware Transoceanic
04:10PM 44.6612 -152.1104 77° East 509 586 35,000  Level FlightAware Transoceanic
04:11PM 44.6936 -151.9196 77° East 509 586 35,000  Level FlightAware Transoceanic
04:12PM 44.7256 -151.7286 77° East 509 586 35,000  Level FlightAware Transoceanic
04:13PM 44.7574 -151.5373 77° East 509 586 35,000  Level FlightAware Transoceanic
04:14PM 44.7912 -151.3325 77° East 522 601 35,000  Level FlightAware Transoceanic
04:15PM 44.8220 -151.1427 77° East 522 601 35,000  Level FlightAware Transoceanic
04:16PM 44.8524 -150.9527 77° East 522 601 35,000  Level FlightAware Transoceanic
04:17PM 44.8826 -150.7626 77° East 522 601 35,000  Level FlightAware Transoceanic
04:18PM 44.9124 -150.5722 78° East 522 601 35,000  Level FlightAware Transoceanic
04:19PM 44.9419 -150.3817 78° East 522 601 35,000  Level FlightAware Transoceanic
04:20PM 44.9711 -150.1909 78° East 522 601 35,000  Level FlightAware Transoceanic
04:20PM 45.0000 -150.0000 86° East 530 610 35,000  Level Oakland Oceanic (ODAPS)
04:21PM 45.0000 -150.0000 86° East 522 601 35,000  Level FlightAware Transoceanic
04:22PM 45.0089 -149.7922 87° East 522 601 35,000  Level FlightAware Transoceanic
04:22PM 45.0167 -149.6667 87° East 536 617 35,000  Level Oakland Oceanic (ODAPS)
04:23PM 45.0174 -149.5843 87° East 522 601 35,000  Level FlightAware Transoceanic
04:24PM 45.0256 -149.3763 87° East 522 601 35,000  Level FlightAware Transoceanic
04:25PM 45.0333 -149.1683 87° East 522 601 35,000  Level FlightAware Transoceanic
04:26PM 45.0407 -148.9602 87° East 522 601 35,000  Level FlightAware Transoceanic
04:27PM 45.0477 -148.7521 87° East 530 610 35,000  Level FlightAware Transoceanic
04:28PM 45.0608 -148.4074 88° East 536 617 35,000  Level FlightAware Transoceanic
04:29PM 45.0668 -148.1974 88° East 536 617 35,000  Level FlightAware Transoceanic
04:30PM 45.0724 -147.9873 88° East 536 617 35,000  Level FlightAware Transoceanic
04:31PM 45.0776 -147.7771 88° East 536 617 35,000  Level FlightAware Transoceanic
04:32PM 45.0825 -147.5670 88° East 536 617 35,000  Level FlightAware Transoceanic
04:33PM 45.0869 -147.3568 88° East 536 617 35,000  Level FlightAware Transoceanic
04:34PM 45.0910 -147.1465 89° East 536 617 35,000  Level FlightAware Transoceanic
04:35PM 45.0947 -146.9362 89° East 536 617 35,000  Level FlightAware Transoceanic
04:36PM 45.0980 -146.7260 89° East 536 617 35,000  Level FlightAware Transoceanic
04:36PM 45.1000 -146.7667 89° East 540 621 35,000  Level Oakland Oceanic (ODAPS)
04:37PM 45.1009 -146.5156 89° East 536 617 35,000  Level FlightAware Transoceanic
04:38PM 45.1035 -146.3053 89° East 536 617 35,000  Level FlightAware Transoceanic
04:39PM 45.1056 -146.0950 89° East 536 617 35,000  Level FlightAware Transoceanic
04:40PM 45.1074 -145.8846 89° East 536 617 35,000  Level FlightAware Transoceanic
04:41PM 45.1087 -145.6742 90° East 536 617 35,000  Level FlightAware Transoceanic
04:42PM 45.1117 -145.4969 90° East 540 621 35,000  Level FlightAware Transoceanic
04:43PM 45.1123 -145.2852 90° East 540 621 35,000  Level FlightAware Transoceanic
04:44PM 45.1125 -145.0735 90° East 540 621 35,000  Level FlightAware Transoceanic
04:45PM 45.1123 -144.8618 90° East 540 621 35,000  Level FlightAware Transoceanic
04:46PM 45.1117 -144.6502 90° East 540 621 35,000  Level FlightAware Transoceanic
04:47PM 45.1107 -144.4385 90° East 540 621 35,000  Level FlightAware Transoceanic
04:48PM 45.1094 -144.2269 91° East 540 621 35,000  Level FlightAware Transoceanic
04:49PM 45.1076 -144.0152 91° East 540 621 35,000  Level FlightAware Transoceanic
04:50PM 45.1054 -143.8036 91° East 540 621 35,000  Level FlightAware Transoceanic
04:50PM 45.1000 -143.8500 91° East 545 627 35,000  Level Oakland Oceanic (ODAPS)
04:51PM 45.1029 -143.5920 91° East 540 621 35,000  Level FlightAware Transoceanic
04:52PM 45.1000 -143.3804 91° East 540 621 35,000  Level FlightAware Transoceanic
04:53PM 45.0966 -143.1688 91° East 540 621 35,000  Level FlightAware Transoceanic
04:54PM 45.0929 -142.9573 91° East 540 621 35,000  Level FlightAware Transoceanic
04:55PM 45.0888 -142.7457 92° East 540 621 35,000  Level FlightAware Transoceanic
04:56PM 45.0811 -142.5653 92° East 545 627 35,000  Level FlightAware Transoceanic
04:57PM 45.0765 -142.3513 92° East 545 627 35,000  Level FlightAware Transoceanic
04:58PM 45.0715 -142.1373 92° East 545 627 35,000  Level FlightAware Transoceanic
04:59PM 45.0662 -141.9233 92° East 545 627 35,000  Level FlightAware Transoceanic
05:00PM 45.0604 -141.7094 92° East 545 627 35,000  Level FlightAware Transoceanic
05:01PM 45.0543 -141.4955 92° East 545 627 35,000  Level FlightAware Transoceanic
05:02PM 45.0477 -141.2817 93° East 545 627 35,000  Level FlightAware Transoceanic
05:03PM 45.0407 -141.0680 93° East 545 627 35,000  Level FlightAware Transoceanic
05:03PM 45.0333 -140.8667 93° East 548 631 35,000  Level Oakland Oceanic (ODAPS)
05:04PM 45.0334 -140.8542 93° East 545 627 35,000  Level FlightAware Transoceanic
05:05PM 45.0256 -140.6406 93° East 545 627 35,000  Level FlightAware Transoceanic
05:06PM 45.0175 -140.4270 93° East 545 627 35,000  Level FlightAware Transoceanic
05:07PM 45.0089 -140.2135 93° East 545 627 35,000  Level FlightAware Transoceanic
05:07PM 45.0000 -140.0000 109° East 545 627 35,000  Level Oakland Oceanic (ODAPS)
05:08PM 45.0000 -140.0000 109° East 545 627 35,000  Level FlightAware Transoceanic
05:09PM 44.9517 -139.8023 109° East 545 627 35,000  Level FlightAware Transoceanic
05:10PM 44.9031 -139.6048 109° East 548 631 35,000  Level FlightAware Transoceanic
05:11PM 44.8542 -139.4078 109° East 548 631 35,000  Level FlightAware Transoceanic
05:12PM 44.8049 -139.2110 110° East 548 631 35,000  Level FlightAware Transoceanic
05:13PM 44.7553 -139.0146 110° East 548 631 35,000  Level FlightAware Transoceanic
05:14PM 44.6995 -138.7960 110° East 545 627 35,000  Level FlightAware Transoceanic
05:15PM 44.6482 -138.5965 110° East 545 627 35,000  Level FlightAware Transoceanic
05:16PM 44.5966 -138.3974 110° East 545 627 35,000  Level FlightAware Transoceanic
05:17PM 44.5446 -138.1987 110° East 545 627 35,000  Level FlightAware Transoceanic
05:17PM 44.5000 -138.0167 110° East 545 627 35,000  Level Oakland Oceanic (ODAPS)
05:18PM 44.4922 -138.0003 110° East 545 627 35,000  Level FlightAware Transoceanic
05:19PM 44.4395 -137.8023 111° Southeast 545 627 35,000  Level FlightAware Transoceanic
05:20PM 44.3865 -137.6046 111° Southeast 545 627 35,000  Level FlightAware Transoceanic
05:21PM 44.3331 -137.4073 111° Southeast 545 627 35,000  Level FlightAware Transoceanic
05:22PM 44.2794 -137.2104 111° Southeast 545 627 35,000  Level FlightAware Transoceanic
05:23PM 44.2254 -137.0138 111° Southeast 545 627 35,000  Level FlightAware Transoceanic
05:24PM 44.1778 -136.8314 111° Southeast 545 627 35,000  Level FlightAware Transoceanic
05:25PM 44.1230 -136.6351 111° Southeast 545 627 35,000  Level FlightAware Transoceanic
05:26PM 44.0677 -136.4392 111° Southeast 545 627 35,000  Level FlightAware Transoceanic
05:27PM 44.0122 -136.2436 112° Southeast 545 627 35,000  Level FlightAware Transoceanic
05:28PM 43.9563 -136.0485 112° Southeast 545 627 35,000  Level FlightAware Transoceanic
05:29PM 43.9001 -135.8537 112° Southeast 545 627 35,000  Level FlightAware Transoceanic
05:30PM 43.8436 -135.6592 112° Southeast 545 627 35,000  Level FlightAware Transoceanic
05:31PM 43.7867 -135.4651 112° Southeast 545 627 35,000  Level FlightAware Transoceanic
05:31PM 43.7333 -135.3000 112° Southeast 540 621 35,000  Level Oakland Oceanic (ODAPS)
05:32PM 43.7295 -135.2714 112° Southeast 545 627 35,000  Level FlightAware Transoceanic
05:33PM 43.6720 -135.0781 112° Southeast 545 627 35,000  Level FlightAware Transoceanic
05:34PM 43.6141 -134.8851 113° Southeast 545 627 35,000  Level FlightAware Transoceanic
05:35PM 43.5559 -134.6926 113° Southeast 545 627 35,000  Level FlightAware Transoceanic
05:36PM 43.4974 -134.5003 113° Southeast 545 627 35,000  Level FlightAware Transoceanic
05:37PM 43.3950 -134.1791 113° Southeast 540 621 35,000  Level FlightAware Transoceanic
05:38PM 43.3376 -133.9935 113° Southeast 540 621 35,000  Level FlightAware Transoceanic
05:39PM 43.2798 -133.8082 113° Southeast 540 621 35,000  Level FlightAware Transoceanic
05:40PM 43.2218 -133.6234 113° Southeast 540 621 35,000  Level FlightAware Transoceanic
05:41PM 43.1634 -133.4388 114° Southeast 540 621 35,000  Level FlightAware Transoceanic
05:42PM 43.1048 -133.2546 114° Southeast 540 621 35,000  Level FlightAware Transoceanic
05:43PM 43.0458 -133.0708 114° Southeast 540 621 35,000  Level FlightAware Transoceanic
05:44PM 42.9866 -132.8873 114° Southeast 540 621 35,000  Level FlightAware Transoceanic
05:45PM 42.9271 -132.7042 114° Southeast 540 621 35,000  Level FlightAware Transoceanic
05:45PM 42.9333 -132.7000 114° Southeast 533 613 35,000  Level Oakland Oceanic (ODAPS)
05:46PM 42.8673 -132.5214 114° Southeast 540 621 35,000  Level FlightAware Transoceanic
05:47PM 42.8072 -132.3390 114° Southeast 540 621 35,000  Level FlightAware Transoceanic
05:48PM 42.7468 -132.1570 114° Southeast 540 621 35,000  Level FlightAware Transoceanic
05:49PM 42.6861 -131.9753 115° Southeast 540 621 35,000  Level FlightAware Transoceanic
05:50PM 42.6251 -131.7939 115° Southeast 540 621 35,000  Level FlightAware Transoceanic
05:51PM 42.5676 -131.6103 115° Southeast 533 613 35,000  Level FlightAware Transoceanic
05:52PM 42.5057 -131.4300 115° Southeast 533 613 35,000  Level FlightAware Transoceanic
05:53PM 42.4434 -131.2500 115° Southeast 533 613 35,000  Level FlightAware Transoceanic
05:54PM 42.3809 -131.0703 115° Southeast 533 613 35,000  Level FlightAware Transoceanic
05:55PM 42.3181 -130.8911 115° Southeast 533 613 35,000  Level FlightAware Transoceanic
05:56PM 42.2551 -130.7121 116° Southeast 533 613 35,000  Level FlightAware Transoceanic
05:57PM 42.1917 -130.5336 116° Southeast 533 613 35,000  Level FlightAware Transoceanic
05:58PM 42.1281 -130.3553 116° Southeast 533 613 35,000  Level FlightAware Transoceanic
05:59PM 42.0642 -130.1775 116° Southeast 533 613 35,000  Level FlightAware Transoceanic
05:59PM 42.0667 -130.2000 114° Southeast 526 605 35,000  Level Oakland Oceanic (ODAPS)
06:00PM 42.0000 -130.0000 120° Southeast 533 613 35,000  Level FlightAware Transoceanic
06:00PM 42.0000 -130.0000 120° Southeast 527 606 35,000  Level Oakland Oceanic (ODAPS)
06:01PM 41.9261 -129.8300 120° Southeast 533 613 35,000  Level FlightAware Transoceanic
06:02PM 41.8520 -129.6604 120° Southeast 533 613 35,000  Level FlightAware Transoceanic
06:03PM 41.7777 -129.4912 121° Southeast 533 613 35,000  Level FlightAware Transoceanic
06:04PM 41.7031 -129.3224 121° Southeast 533 613 35,000  Level FlightAware Transoceanic
06:05PM 41.6480 -129.1983 121° Southeast 526 605 35,000  Level FlightAware Transoceanic
06:06PM 41.5531 -128.9860 121° Southeast 527 606 35,000  Level FlightAware Transoceanic
06:07PM 41.4778 -128.8184 121° Southeast 527 606 35,000  Level FlightAware Transoceanic
06:08PM 41.4022 -128.6511 121° Southeast 527 606 35,000  Level FlightAware Transoceanic
06:09PM 41.3264 -128.4843 121° Southeast 527 606 35,000  Level FlightAware Transoceanic
06:10PM 41.2503 -128.3178 121° Southeast 527 606 35,000  Level FlightAware Transoceanic
06:11PM 41.1740 -128.1517 121° Southeast 527 606 35,000  Level FlightAware Transoceanic
06:12PM 41.0975 -127.9860 122° Southeast 527 606 35,000  Level FlightAware Transoceanic
06:13PM 41.0207 -127.8207 122° Southeast 527 606 35,000  Level FlightAware Transoceanic
06:13PM 41.0500 -127.8833 122° Southeast 527 606 35,000  Level Oakland Oceanic (ODAPS)
06:14PM 40.9437 -127.6558 122° Southeast 527 606 35,000  Level FlightAware Transoceanic
06:15PM 40.8665 -127.4913 122° Southeast 527 606 35,000  Level FlightAware Transoceanic
06:15PM 40.8617 -127.4906 118° Southeast 527 606 35,000  Level Oakland Center
06:15PM 40.8500 -127.4833 120° Southeast 514 592 35,000  Level Oakland Oceanic (ODAPS)
06:16PM 40.7890 -127.3271 122° Southeast 527 606 35,000  Level FlightAware Transoceanic
06:16PM 40.7819 -127.3308 120° Southeast 525 604 35,000  Level Oakland Center
06:17PM 40.7113 -127.1634 122° Southeast 527 606 35,000  Level FlightAware Transoceanic
06:17PM 40.6908 -127.1825 129° Southeast 521 600 35,000  Level Oakland Center
06:18PM 40.6333 -127.0000 118° Southeast 527 606 35,000 -120 Level FlightAware Transoceanic
06:18PM 40.5972 -127.0356 130° Southeast 521 600 34,900  Descending Oakland Center
06:19PM 40.5670 -126.8341 118° Southeast 527 606 35,000 60 Climbing FlightAware Transoceanic
06:19PM 40.5036 -126.8894 130° Southeast 522 601 35,000  Level Oakland Center
06:20PM 40.5005 -126.6685 118° Southeast 527 606 35,000  Level FlightAware Transoceanic
06:20PM 40.3950 -126.7136 129° Southeast 521 600 35,000  Level Oakland Center
06:21PM 40.4337 -126.5033 118° Southeast 527 606 35,000  Level FlightAware Transoceanic
06:21PM 40.3019 -126.5672 130° Southeast 523 602 35,000 -60 Level Oakland Center
06:22PM 40.2097 -126.4231 130° Southeast 520 598 34,900 -60 Descending Oakland Center
06:23PM 40.1158 -126.2775 130° Southeast 523 602 34,900  Level Oakland Center
06:24PM 40.0236 -126.1339 130° Southeast 520 598 35,000  Climbing Oakland Center
06:25PM 39.9314 -125.9906 130° Southeast 520 598 34,900 -60 Descending Oakland Center
06:26PM 39.8381 -125.8481 130° Southeast 519 597 34,900  Level Oakland Center
06:27PM 39.7450 -125.7058 130° Southeast 518 596 35,000  Climbing Oakland Center
06:28PM 39.6533 -125.5653 130° Southeast 515 593 35,000  Level Oakland Center
06:29PM 39.5419 -125.3975 131° Southeast 514 592 35,000 -60 Level Oakland Center
06:30PM 39.4497 -125.2572 130° Southeast 515 593 34,900  Descending Oakland Center
06:31PM 39.3633 -125.1278 131° Southeast 509 586 35,000  Climbing Oakland Center
06:32PM 39.2714 -124.9906 131° Southeast 507 583 34,900 -60 Descending Oakland Center
06:33PM 39.1783 -124.8525 131° Southeast 509 586 34,900  Level Oakland Center
06:34PM 39.0825 -124.7078 130° Southeast 511 588 35,000  Climbing Oakland Center
06:35PM 38.9914 -124.5731 131° Southeast 505 581 35,000  Level Oakland Center
06:37PM 38.8989 -124.4406 132° Southeast 500 575 35,000 -60 Level Oakland Center
06:38PM 38.8067 -124.3033 131° Southeast 506 582 34,900  Descending Oakland Center
06:39PM 38.7008 -124.1486 131° Southeast 500 575 35,000  Climbing Oakland Center
06:40PM 38.6089 -124.0156 131° Southeast 499 574 35,000  Level Oakland Center
06:41PM 38.5167 -123.8822 131° Southeast 501 577 35,000  Level Oakland Center
06:42PM 38.4258 -123.7486 131° Southeast 499 574 35,000 -60 Level Oakland Center
06:43PM 38.3322 -123.6164 132° Southeast 502 578 34,900  Descending Oakland Center
06:44PM 38.2400 -123.4836 131° Southeast 500 575 35,000  Climbing Oakland Center
06:45PM 38.1472 -123.3522 132° Southeast 500 575 35,000  Level Oakland Center
06:46PM 38.0539 -123.2225 132° Southeast 500 575 35,000 -60 Level Oakland Center
06:47PM 37.9447 -123.0667 132° Southeast 494 568 34,900 -60 Descending Oakland Center
06:48PM 37.8533 -122.9383 132° Southeast 495 570 34,900  Level Oakland Center
06:49PM 37.7617 -122.8122 133° Southeast 496 571 35,000  Climbing Oakland Center
06:50PM 37.6714 -122.6842 132° Southeast 497 572 34,900  Descending Oakland Center
06:51PM 37.5794 -122.5578 133° Southeast 495 570 35,000  Climbing Oakland Center
06:52PM 37.4869 -122.4289 132° Southeast 506 582 34,900  Descending Oakland Center
06:53PM 37.3953 -122.3006 132° Southeast 499 574 35,000  Climbing Oakland Center
06:54PM 37.2842 -122.1472 132° Southeast 500 575 35,000 -60 Level Oakland Center
06:55PM 37.1914 -122.0200 132° Southeast 497 572 34,900  Descending Oakland Center
06:56PM 37.0983 -121.8942 133° Southeast 496 571 35,000  Climbing Oakland Center
06:57PM 37.0056 -121.7697 133° Southeast 490 564 34,900  Descending Oakland Center
06:58PM 36.9133 -121.6444 133° Southeast 489 563 35,000  Climbing Oakland Center
06:59PM 36.8153 -121.5119 133° Southeast 489 563 35,000 -60 Level Oakland Center
07:00PM 36.7239 -121.3861 132° Southeast 489 563 34,900  Descending Oakland Center
07:01PM 36.6289 -121.2628 134° Southeast 492 566 35,000  Climbing Oakland Center
07:02PM 36.5364 -121.1347 132° Southeast 497 572 34,900  Descending Oakland Center
07:03PM 36.4425 -121.0108 133° Southeast 494 568 35,000  Climbing Oakland Center
07:04PM 36.3486 -120.8881 133° Southeast 491 565 34,900 -60 Descending Oakland Center
07:05PM 36.2547 -120.7633 133° Southeast 493 567 34,900  Level Oakland Center
07:06PM 36.1600 -120.6400 134° Southeast 492 566 34,900  Level Oakland Center
07:07PM 36.0464 -120.4914 133° Southeast 495 570 35,000  Climbing Oakland Center
07:08PM 35.9514 -120.3689 134° Southeast 486 559 35,000  Level Oakland Center
07:09PM 35.8553 -120.2450 134° Southeast 494 568 35,000  Level Oakland Center
07:10PM 35.7594 -120.1206 133° Southeast 495 570 35,000  Level Oakland Center
07:11PM 35.6611 -119.9958 134° Southeast 499 574 35,000  Level Oakland Center
07:12PM 35.5494 -119.8914 143° Southeast 500 575 35,000  Level Oakland Center
07:13PM 35.4328 -119.7919 145° Southeast 504 580 35,000 -780 Level Oakland Center
07:15PM 35.2983 -119.6772 145° Southeast 494 568 33,200 -1,740 Descending Los Angeles Center
07:16PM 35.1903 -119.5850 145° Southeast 477 549 31,100 -2,220 Descending Los Angeles Center
07:17PM 35.0653 -119.4775 145° Southeast 459 528 28,700 -2,160 Descending Los Angeles Center
07:18PM 34.9625 -119.3908 145° Southeast 451 519 26,700 -1,860 Descending Los Angeles Center
07:19PM 34.8633 -119.3064 145° Southeast 439 505 24,900 -1,800 Descending Los Angeles Center
07:20PM 34.7681 -119.2239 145° Southeast 424 488 23,000 -1,800 Descending Los Angeles Center
07:21PM 34.6739 -119.1461 146° Southeast 412 474 21,200 -1,740 Descending Los Angeles Center
07:22PM 34.5819 -119.0722 147° Southeast 409 471 19,500 -1,920 Descending Los Angeles Center
07:23PM 34.4764 -118.9825 145° Southeast 388 447 17,300 -1,920 Descending Los Angeles Center
07:24PM 34.3892 -118.9089 145° Southeast 382 440 15,600 -1,680 Descending Los Angeles Center
07:25PM 34.2944 -118.8581 156° South 368 423 13,900 -1,620 Descending Los Angeles Center
07:26PM 34.1967 -118.8236 164° South 365 420 12,300 -1,320 Descending Los Angeles Center
07:27PM 34.1028 -118.7889 163° South 354 407 11,200 -1,020 Descending Los Angeles Center
07:28PM 34.0331 -118.7050 135° Southeast 321 369 10,300 -780 Descending Los Angeles Center
07:29PM 34.0242 -118.6050 96° East 299 344 9,700 -1,200 Descending Los Angeles Center
07:30PM 34.0153 -118.4978 96° East 297 342 7,900 -1,560 Descending Los Angeles Center
07:31PM 34.0086 -118.4056 95° East 290 334 6,500 -1,260 Descending Los Angeles Center
07:32PM 34.0217 -118.3067 81° East 295 339 5,300 -840 Descending Los Angeles Center
07:33PM 34.0331 -118.2153 81° East 282 325 4,800 -540 Descending Los Angeles Center
07:34PM 34.0131 -118.1506 110° East 243 280 4,200 -780 Descending Los Angeles Center
07:35PM 33.9650 -118.1767 204° Southwest 203 234 3,300 -1,020 Descending Los Angeles Center
07:36PM 33.9514 -118.2536 258° West 201 231 2,200 -1,020 Descending Los Angeles Center
07:37PM 33.9450 -118.3106 262° West 188 216 1,300 -780 Descending Los Angeles Center
07:38PM 33.9408 -118.3572 264° West 160 184 600 -600 Descending Los Angeles Center
07:39PM 33.9572 -118.4136 289° West 159 183 100 -540 Descending Los Angeles Center
07:41PM 33.9425 -118.4081 228° Southwest  Level Estimated
07:48PM 33.9425 -118.4081 228° Southwest  Level Estimated